Time;durP1;ratioP1;P1;durP2;ratioP2;P2;SDS_P1;SDS_P2;PMS_P1;PMS_P2;Temp;Humidity;BMP_temperature;BMP_pressure;BME280_temperature;BME280_humidity;BME280_pressure;Samples;Min_cycle;Max_cycle;Signal;HPM_P1;HPM_P2
2022/10/15 00:00:43;;;;;;;14.18;8.52;;;;;;;13.77;46.80;94036.56;5048399;28;20025;-81
2022/10/15 00:03:08;;;;;;;14.38;7.10;;;;;;;13.70;46.97;94051.22;5045132;28;20025;-79
2022/10/15 00:05:38;;;;;;;8.38;5.97;;;;;;;13.94;47.45;94084.50;5036267;28;20496;-80
2022/10/15 00:08:04;;;;;;;6.75;4.90;;;;;;;13.92;47.61;94070.72;5044840;28;20435;-78
2022/10/15 00:10:30;;;;;;;7.15;4.15;;;;;;;13.77;48.00;94042.69;5048026;28;20029;-79
2022/10/15 00:12:55;;;;;;;5.63;4.05;;;;;;;13.94;48.36;94055.09;5044737;28;20680;-81
2022/10/15 00:15:21;;;;;;;6.85;3.95;;;;;;;13.97;48.39;94063.28;5047406;28;20047;-79
2022/10/15 00:17:46;;;;;;;4.18;3.55;;;;;;;14.06;48.51;94073.88;5045723;28;20036;-79
2022/10/15 00:20:12;;;;;;;3.70;2.92;;;;;;;13.92;48.81;94049.31;5043600;28;20047;-80
2022/10/15 00:22:37;;;;;;;4.30;3.55;;;;;;;13.96;48.96;94060.91;5044357;28;20036;-80
2022/10/15 00:25:04;;;;;;;3.88;3.45;;;;;;;13.85;49.59;94071.22;5030739;28;20436;-79
2022/10/15 00:27:29;;;;;;;3.67;3.10;;;;;;;13.59;49.74;94041.25;5029053;28;20025;-80
2022/10/15 00:29:55;;;;;;;5.05;3.50;;;;;;;13.66;49.55;94036.16;5044766;28;20070;-78
2022/10/15 00:32:20;;;;;;;3.47;2.88;;;;;;;13.57;50.23;94056.78;5046089;28;20032;-80
2022/10/15 00:34:46;;;;;;;6.10;3.50;;;;;;;13.69;50.19;94062.25;5045167;28;21223;-79
2022/10/15 00:37:11;;;;;;;3.83;2.92;;;;;;;13.37;50.39;94023.63;5045766;28;20029;-79
2022/10/15 00:39:36;;;;;;;4.80;3.20;;;;;;;13.57;50.48;94062.13;5029271;28;20037;-81
2022/10/15 00:42:02;;;;;;;6.18;3.75;;;;;;;13.50;50.87;94046.63;5042922;28;20036;-79
2022/10/15 00:44:28;;;;;;;4.28;3.28;;;;;;;13.61;50.84;94055.06;5045265;28;20547;-80
2022/10/15 00:47:00;;;;;;;3.78;3.03;;;;;;;13.45;51.32;94049.47;5045862;28;20028;-80
2022/10/15 00:49:28;;;;;;;5.28;3.33;;;;;;;13.57;50.86;94043.44;5045607;28;20107;-80
2022/10/15 00:51:58;;;;;;;4.88;3.25;;;;;;;13.52;50.80;94031.06;5043986;28;20027;-79
2022/10/15 00:54:26;;;;;;;6.72;3.53;;;;;;;13.47;51.10;94038.47;5027804;28;20021;-78
2022/10/15 00:56:53;;;;;;;4.93;3.65;;;;;;;13.50;51.12;94038.59;5043901;28;20047;-79
2022/10/15 00:59:21;;;;;;;6.65;3.30;;;;;;;13.46;50.93;94028.88;5021833;28;20541;-80
2022/10/15 01:01:47;;;;;;;6.75;3.38;;;;;;;13.54;50.95;94028.84;5026391;28;20399;-78
2022/10/15 01:04:13;;;;;;;4.50;2.92;;;;;;;13.12;51.07;93963.13;5045747;28;20021;-80
2022/10/15 01:06:39;;;;;;;6.60;3.22;;;;;;;13.31;51.27;94014.22;5040863;28;20028;-78
2022/10/15 01:09:05;;;;;;;7.25;3.25;;;;;;;13.28;51.12;93996.97;5044146;28;20039;-79
2022/10/15 01:11:45;;;;;;;5.75;3.25;;;;;;;13.58;51.21;94037.78;5043915;28;20086;-80
2022/10/15 01:14:23;;;;;;;6.20;3.08;;;;;;;13.57;51.10;94033.53;5031178;28;20114;-78
2022/10/15 01:16:58;;;;;;;5.80;3.38;;;;;;;13.53;51.07;94032.63;5036922;28;20066;-78
2022/10/15 01:19:54;;;;;;;6.72;3.42;;;;;;;13.58;51.06;94043.13;5027512;28;20025;-81
2022/10/15 01:23:03;;;;;;;4.53;3.55;;;;;;;13.57;51.04;94033.53;5045886;28;20017;-78
2022/10/15 01:25:48;;;;;;;5.40;4.22;;;;;;;13.59;51.25;94034.00;4990204;28;20029;-79
2022/10/15 01:28:42;;;;;;;5.18;3.78;;;;;;;13.65;51.13;94034.59;5043861;28;20031;-79
2022/10/15 01:31:15;;;;;;;5.40;3.92;;;;;;;13.63;50.81;94026.13;5026369;28;21107;-80
2022/10/15 01:33:53;;;;;;;5.50;3.42;;;;;;;13.50;50.65;94017.22;5032213;28;20626;-80
2022/10/15 01:36:34;;;;;;;5.07;3.47;;;;;;;13.70;50.53;94037.84;5026868;28;20020;-80
2022/10/15 01:39:14;;;;;;;5.32;3.20;;;;;;;13.63;50.65;94029.59;5046012;28;20028;-78
2022/10/15 01:41:48;;;;;;;6.35;3.63;;;;;;;13.54;50.47;94006.69;5043526;28;20025;-79
2022/10/15 01:44:27;;;;;;;4.50;3.58;;;;;;;13.52;50.50;94012.34;5048401;28;20534;-79
2022/10/15 01:47:17;;;;;;;6.45;3.53;;;;;;;13.58;50.78;94020.94;5046716;28;20118;-79
2022/10/15 01:49:45;;;;;;;4.25;3.78;;;;;;;13.63;50.51;94031.47;5047039;28;20037;-78
2022/10/15 01:52:19;;;;;;;3.53;2.90;;;;;;;13.66;50.59;94031.59;5029404;28;20021;-79
2022/10/15 01:54:47;;;;;;;4.03;3.20;;;;;;;13.74;50.20;94033.41;5045296;28;20028;-79
2022/10/15 01:57:13;;;;;;;5.25;3.53;;;;;;;13.70;50.39;94029.81;5047431;28;20078;-81
2022/10/15 01:59:41;;;;;;;6.18;3.90;;;;;;;13.67;50.31;94011.78;5040691;28;20153;-79
2022/10/15 02:02:07;;;;;;;3.95;3.55;;;;;;;13.83;49.97;94044.06;5040371;28;20443;-79
2022/10/15 02:04:32;;;;;;;4.50;3.17;;;;;;;13.71;49.89;94022.59;5024583;28;20446;-79
2022/10/15 02:07:17;;;;;;;3.92;3.28;;;;;;;13.90;50.00;94035.47;5044882;28;20024;-80
2022/10/15 02:10:10;;;;;;;5.72;4.07;;;;;;;13.89;49.76;94040.03;5048027;28;20029;-80
2022/10/15 02:12:54;;;;;;;4.82;3.10;;;;;;;13.66;49.86;94010.22;5049399;28;20044;-79
2022/10/15 02:15:33;;;;;;;4.30;3.17;;;;;;;13.86;49.70;94037.25;5032282;28;20021;-81
2022/10/15 02:18:17;;;;;;;4.60;3.50;;;;;;;13.88;49.95;94040.41;5046727;28;20488;-79
2022/10/15 02:21:01;;;;;;;6.47;3.80;;;;;;;13.85;49.82;94043.72;5035106;28;20551;-80
2022/10/15 02:23:52;;;;;;;6.38;3.78;;;;;;;13.84;50.07;94042.16;5036727;28;20082;-79
2022/10/15 02:26:20;;;;;;;4.25;3.28;;;;;;;13.78;49.98;94032.78;5035892;28;20043;-81
2022/10/15 02:28:51;;;;;;;4.43;3.30;;;;;;;13.58;50.38;94015.59;5045134;28;20033;-80
2022/10/15 02:31:19;;;;;;;3.78;2.80;;;;;;;13.49;50.70;94007.66;5030017;28;20554;-80
2022/10/15 02:33:46;;;;;;;4.88;3.17;;;;;;;13.60;50.64;94035.56;5034796;28;20029;-80
2022/10/15 02:36:12;;;;;;;4.88;2.72;;;;;;;13.43;50.79;93998.28;5046172;28;20511;-78
2022/10/15 02:38:41;;;;;;;7.95;2.95;;;;;;;13.46;50.65;93997.63;5050706;28;20607;-79
2022/10/15 02:41:08;;;;;;;8.75;3.65;;;;;;;13.62;50.75;94033.38;5049813;28;20052;-78
2022/10/15 02:43:35;;;;;;;4.35;2.85;;;;;;;13.57;50.65;94027.41;5052412;28;20074;-80
2022/10/15 02:46:00;;;;;;;4.07;3.60;;;;;;;13.60;50.89;94048.16;5050278;28;20416;-78
2022/10/15 02:48:26;;;;;;;4.40;3.13;;;;;;;13.47;50.94;94030.47;5048992;28;20234;-79
2022/10/15 02:50:51;;;;;;;4.07;2.53;;;;;;;13.62;50.87;94040.59;5031830;28;20025;-78
2022/10/15 02:53:17;;;;;;;3.85;3.08;;;;;;;13.67;50.75;94049.19;5046477;28;20027;-81
2022/10/15 02:55:42;;;;;;;4.53;3.10;;;;;;;12.83;51.11;93932.72;5048680;28;20033;-78
2022/10/15 02:58:08;;;;;;;4.82;3.28;;;;;;;13.51;51.41;94036.72;5030445;28;20520;-78
2022/10/15 03:00:33;;;;;;;4.47;3.35;;;;;;;13.37;51.66;94018.25;5047796;28;20472;-80
2022/10/15 03:02:58;;;;;;;3.80;3.20;;;;;;;13.48;51.47;94022.13;5048886;28;20248;-79
2022/10/15 03:05:24;;;;;;;5.25;3.63;;;;;;;13.54;51.71;94036.06;5052228;28;20021;-78
2022/10/15 03:07:49;;;;;;;4.55;2.95;;;;;;;13.35;51.38;94004.44;5048418;28;20291;-79
2022/10/15 03:10:15;;;;;;;4.90;3.35;;;;;;;13.57;51.27;94030.84;5031475;28;20104;-78
2022/10/15 03:12:40;;;;;;;5.45;3.38;;;;;;;13.64;51.39;94038.38;5031600;28;20056;-79
2022/10/15 03:15:06;;;;;;;4.78;3.30;;;;;;;13.60;51.27;94022.19;5048910;28;20478;-80
2022/10/15 03:17:31;;;;;;;4.88;3.55;;;;;;;13.54;51.23;94017.38;5046277;28;20079;-80
2022/10/15 03:19:57;;;;;;;6.45;3.90;;;;;;;13.54;51.44;94018.16;5050160;28;20480;-78
2022/10/15 03:22:22;;;;;;;7.90;3.30;;;;;;;13.50;51.21;94017.22;5047929;28;20035;-80
2022/10/15 03:24:48;;;;;;;4.47;3.38;;;;;;;13.65;51.47;94045.28;5050913;28;20430;-80
2022/10/15 03:27:13;;;;;;;4.03;3.05;;;;;;;13.65;51.41;94045.28;5032575;28;20032;-80
2022/10/15 03:29:38;;;;;;;4.82;3.25;;;;;;;13.42;51.45;94012.72;5048688;28;20432;-79
2022/10/15 03:32:04;;;;;;;4.28;3.60;;;;;;;13.53;51.29;94027.28;5047380;28;20025;-81
2022/10/15 03:34:29;;;;;;;4.70;3.88;;;;;;;13.38;51.38;94003.03;5049298;28;20119;-80
2022/10/15 03:36:55;;;;;;;3.53;2.90;;;;;;;13.52;51.46;94030.25;5029571;28;20029;-79
2022/10/15 03:39:20;;;;;;;3.58;3.20;;;;;;;13.63;51.36;94047.50;5032804;28;20130;-81
2022/10/15 03:41:45;;;;;;;5.65;4.25;;;;;;;13.57;51.30;94036.19;5048843;28;20060;-79
2022/10/15 03:44:12;;;;;;;4.20;3.40;;;;;;;13.38;51.31;93993.13;5030153;28;20033;-80
2022/10/15 03:46:38;;;;;;;3.80;2.97;;;;;;;13.71;51.11;94043.97;5047514;28;20477;-81
2022/10/15 03:49:03;;;;;;;3.72;3.30;;;;;;;13.49;51.17;94014.91;5047203;28;20258;-79
2022/10/15 03:51:28;;;;;;;4.70;3.53;;;;;;;13.59;50.97;94019.88;5048004;28;20020;-79
2022/10/15 03:53:54;;;;;;;3.65;2.83;;;;;;;13.55;50.80;94019.69;5048399;28;20064;-79
2022/10/15 03:56:19;;;;;;;4.20;3.22;;;;;;;13.65;51.01;94034.59;5048840;28;20477;-80
2022/10/15 03:58:45;;;;;;;4.88;3.10;;;;;;;13.60;50.65;94032.91;5047584;28;20176;-80
2022/10/15 04:01:14;;;;;;;4.55;3.47;;;;;;;13.68;50.73;94056.13;5048035;28;20930;-80
2022/10/15 04:03:40;;;;;;;4.85;3.33;;;;;;;13.67;50.86;94046.53;5047798;28;20055;-80
2022/10/15 04:06:06;;;;;;;5.20;3.90;;;;;;;13.69;50.80;94051.56;5047307;28;20537;-79
2022/10/15 04:08:31;;;;;;;6.40;3.58;;;;;;;13.52;50.75;94041.75;5048220;28;20115;-78
2022/10/15 04:10:58;;;;;;;7.38;3.75;;;;;;;13.56;50.85;94048.00;5027797;28;21317;-81
2022/10/15 04:13:24;;;;;;;5.40;3.58;;;;;;;13.24;50.99;93997.94;5044379;28;20625;-79
2022/10/15 04:15:49;;;;;;;5.53;3.92;;;;;;;13.52;50.82;94040.94;5045242;28;20040;-79
2022/10/15 04:18:14;;;;;;;4.30;3.00;;;;;;;13.71;50.92;94070.72;5043767;28;20089;-79
2022/10/15 04:20:41;;;;;;;4.72;3.65;;;;;;;13.67;50.91;94073.25;5040889;28;21055;-80
2022/10/15 04:23:07;;;;;;;6.25;3.60;;;;;;;13.67;51.28;94065.25;5026095;28;20021;-79
2022/10/15 04:25:32;;;;;;;7.28;3.90;;;;;;;13.63;51.54;94064.34;5031365;28;20027;-79
2022/10/15 04:27:58;;;;;;;4.50;3.92;;;;;;;13.34;51.16;94010.91;5042624;28;20035;-81
2022/10/15 04:30:23;;;;;;;5.07;3.85;;;;;;;13.69;51.48;94068.34;5045283;28;20530;-80
2022/10/15 04:32:51;;;;;;;5.85;4.20;;;;;;;13.62;51.13;94057.41;5048440;28;20116;-80
2022/10/15 04:35:17;;;;;;;7.97;4.20;;;;;;;13.69;51.18;94071.03;5047214;28;20024;-79
2022/10/15 04:37:42;;;;;;;5.45;3.97;;;;;;;13.64;51.16;94065.88;5048839;28;20044;-79
2022/10/15 04:40:08;;;;;;;8.82;4.43;;;;;;;13.73;51.32;94079.97;5032265;28;20393;-79
2022/10/15 04:42:34;;;;;;;4.50;3.92;;;;;;;13.71;50.97;94068.81;5036668;28;20029;-79
2022/10/15 04:44:59;;;;;;;5.15;3.60;;;;;;;13.60;51.27;94056.94;5048499;28;20025;-79
2022/10/15 04:47:25;;;;;;;6.32;3.55;;;;;;;13.57;51.13;94049.56;5031079;28;20412;-79
2022/10/15 04:49:50;;;;;;;4.78;3.50;;;;;;;13.73;51.26;94074.63;5041241;28;20125;-79
2022/10/15 04:52:15;;;;;;;7.32;3.38;;;;;;;13.59;51.28;94052.69;5045204;28;20479;-80
2022/10/15 04:54:41;;;;;;;5.80;3.10;;;;;;;13.47;51.18;94044.59;5032211;28;20483;-79
2022/10/15 04:57:06;;;;;;;5.00;3.83;;;;;;;13.63;51.49;94075.03;5031120;28;20098;-78
2022/10/15 04:59:32;;;;;;;7.40;3.47;;;;;;;13.62;51.42;94072.66;5020917;28;20057;-80
2022/10/15 05:01:57;;;;;;;5.00;3.63;;;;;;;13.64;51.43;94076.56;5028418;28;20476;-80
2022/10/15 05:04:22;;;;;;;5.45;4.18;;;;;;;13.80;51.33;94100.03;5046933;28;20418;-78
2022/10/15 05:06:48;;;;;;;6.43;3.90;;;;;;;13.60;51.45;94074.88;5038840;28;20085;-81
2022/10/15 05:09:13;;;;;;;6.38;4.20;;;;;;;13.78;51.43;94094.25;5033888;28;20028;-80
2022/10/15 05:11:39;;;;;;;5.53;3.83;;;;;;;13.78;51.15;94096.94;5038008;28;20078;-80
2022/10/15 05:14:05;;;;;;;6.03;3.85;;;;;;;13.82;51.33;94108.53;5046122;28;20598;-80
2022/10/15 05:16:31;;;;;;;6.72;4.43;;;;;;;13.67;51.29;94086.63;5036872;28;20489;-80
2022/10/15 05:18:59;;;;;;;8.70;5.93;;;;;;;13.81;51.47;94109.63;5042100;28;20024;-80
2022/10/15 05:21:26;;;;;;;9.65;5.38;;;;;;;13.80;51.34;94108.84;5045274;28;20476;-81
2022/10/15 05:23:51;;;;;;;9.52;5.78;;;;;;;13.78;51.62;94111.06;5040318;28;20036;-78
2022/10/15 05:26:22;;;;;;;6.75;4.95;;;;;;;13.58;51.37;94077.84;5030081;28;20055;-82
2022/10/15 05:28:49;;;;;;;5.03;4.53;;;;;;;13.52;51.53;94071.13;5025677;28;20030;-80
2022/10/15 05:31:17;;;;;;;6.75;4.65;;;;;;;13.41;51.45;94061.91;5046581;28;20120;-79
2022/10/15 05:33:42;;;;;;;7.63;4.95;;;;;;;13.80;51.60;94119.53;5048250;28;20024;-79
2022/10/15 05:36:18;;;;;;;8.15;4.05;;;;;;;13.82;51.62;94121.91;5028087;28;20112;-81
2022/10/15 05:38:53;;;;;;;8.05;4.63;;;;;;;13.80;51.82;94122.22;5033037;28;20049;-80
2022/10/15 05:41:19;;;;;;;12.25;4.63;;;;;;;13.82;51.77;94124.56;5028523;28;20025;-79
2022/10/15 05:43:46;;;;;;;5.85;3.70;;;;;;;13.50;51.48;94086.69;5047114;28;20075;-78
2022/10/15 05:46:12;;;;;;;4.82;4.07;;;;;;;13.77;51.79;94124.75;5033614;28;20036;-80
2022/10/15 05:48:38;;;;;;;6.38;4.55;;;;;;;13.86;51.59;94131.63;5050972;28;20123;-81
2022/10/15 05:51:06;;;;;;;5.85;4.15;;;;;;;13.78;51.58;94124.44;5043506;28;20021;-80
2022/10/15 05:53:32;;;;;;;5.75;4.90;;;;;;;13.88;51.63;94139.31;5032393;28;20024;-80
2022/10/15 05:55:58;;;;;;;7.25;4.20;;;;;;;13.89;51.76;94140.84;5044279;28;20039;-80
2022/10/15 05:58:28;;;;;;;12.00;3.83;;;;;;;13.86;51.64;94136.16;5038992;28;20405;-78
2022/10/15 06:00:55;;;;;;;10.00;4.10;;;;;;;13.70;51.61;94110.00;5051736;28;20041;-81
2022/10/15 06:03:22;;;;;;;5.47;3.88;;;;;;;13.82;51.75;94138.72;5049300;28;20492;-78
2022/10/15 06:05:47;;;;;;;16.23;4.30;;;;;;;13.69;51.99;94119.13;5032379;28;20039;-81
2022/10/15 06:08:13;;;;;;;5.65;3.75;;;;;;;13.55;52.07;94110.56;5042021;28;20021;-79
2022/10/15 06:10:39;;;;;;;12.73;5.13;;;;;;;13.70;51.93;94142.09;5050739;28;20024;-79
2022/10/15 06:13:05;;;;;;;6.65;4.63;;;;;;;13.42;52.23;94103.56;5029471;28;20049;-79
2022/10/15 06:15:32;;;;;;;6.75;4.13;;;;;;;13.51;52.21;94125.66;5028208;28;20520;-80
2022/10/15 06:17:58;;;;;;;8.55;5.65;;;;;;;13.47;52.18;94111.41;5028456;28;20872;-79
2022/10/15 06:20:23;;;;;;;5.45;4.20;;;;;;;13.45;52.38;94126.97;5028915;28;20504;-81
2022/10/15 06:22:48;;;;;;;6.22;4.45;;;;;;;13.50;52.47;94142.81;5028519;28;20509;-79
2022/10/15 06:25:14;;;;;;;5.07;3.85;;;;;;;13.34;52.67;94141.81;5025740;28;20028;-81
2022/10/15 06:27:39;;;;;;;5.88;4.68;;;;;;;13.24;53.01;94150.19;5031714;28;20029;-78
2022/10/15 06:30:05;;;;;;;6.95;4.28;;;;;;;13.13;53.27;94147.06;5030188;28;20025;-79
2022/10/15 06:32:31;;;;;;;9.65;4.50;;;;;;;13.09;53.61;94145.38;5030191;28;20254;-80
2022/10/15 06:34:56;;;;;;;9.60;4.72;;;;;;;13.17;53.63;94157.91;5030094;28;20026;-82
2022/10/15 06:37:21;;;;;;;7.85;5.03;;;;;;;13.02;53.58;94129.03;5028338;28;20112;-80
2022/10/15 06:39:47;;;;;;;5.22;3.83;;;;;;;12.82;54.13;94152.66;5031015;28;20366;-79
2022/10/15 06:42:12;;;;;;;6.82;4.28;;;;;;;12.81;54.25;94129.75;5031709;28;20111;-82
2022/10/15 06:44:39;;;;;;;8.27;4.43;;;;;;;12.81;54.20;94127.06;5027702;28;20029;-81
2022/10/15 06:47:04;;;;;;;7.93;4.38;;;;;;;12.77;54.04;94128.81;5029307;28;20025;-80
2022/10/15 06:49:29;;;;;;;9.30;4.85;;;;;;;13.11;53.85;94143.94;5032336;28;20421;-80
2022/10/15 06:51:55;;;;;;;4.75;3.95;;;;;;;13.01;53.75;94144.28;5029270;28;20036;-79
2022/10/15 06:54:20;;;;;;;8.25;3.90;;;;;;;12.95;54.21;94160.81;5028349;28;20113;-79
2022/10/15 06:56:46;;;;;;;8.43;3.95;;;;;;;13.13;53.96;94170.31;5026700;28;20044;-79
2022/10/15 06:59:11;;;;;;;9.60;4.50;;;;;;;13.19;53.85;94145.03;5030402;28;20033;-79
2022/10/15 07:01:37;;;;;;;7.72;4.03;;;;;;;13.42;53.36;94164.22;5025007;28;20148;-80
2022/10/15 07:04:02;;;;;;;8.00;4.45;;;;;;;13.31;53.03;94161.13;5024442;28;20108;-81
2022/10/15 07:06:27;;;;;;;4.90;3.92;;;;;;;13.12;52.54;94126.81;5029425;28;20041;-80
2022/10/15 07:08:53;;;;;;;6.13;3.90;;;;;;;13.22;52.53;94137.13;5025270;28;20056;-80
2022/10/15 07:11:18;;;;;;;5.35;4.20;;;;;;;13.36;52.15;94171.63;5015062;28;20440;-80
2022/10/15 07:13:44;;;;;;;5.85;3.97;;;;;;;13.32;52.16;94144.78;5027990;28;20039;-79
2022/10/15 07:16:11;;;;;;;6.93;4.30;;;;;;;13.44;51.78;94162.81;5027180;28;20028;-80
2022/10/15 07:18:38;;;;;;;5.85;3.40;;;;;;;13.61;51.08;94178.78;5031991;28;20083;-80
2022/10/15 07:21:05;;;;;;;5.35;3.58;;;;;;;13.60;50.66;94177.22;5031089;28;20314;-80
2022/10/15 07:23:31;;;;;;;8.95;4.07;;;;;;;13.74;50.78;94188.44;5035737;28;20032;-79
2022/10/15 07:25:58;;;;;;;5.93;3.95;;;;;;;13.71;50.58;94181.09;5043916;28;20024;-79
2022/10/15 07:28:24;;;;;;;6.15;4.13;;;;;;;13.43;51.04;94134.53;5045854;28;20020;-80
2022/10/15 07:30:49;;;;;;;8.35;4.10;;;;;;;13.71;50.95;94185.63;5028971;28;20029;-80
2022/10/15 07:33:15;;;;;;;5.93;4.25;;;;;;;13.53;51.04;94155.53;5041563;28;20040;-81
2022/10/15 07:35:40;;;;;;;6.22;4.93;;;;;;;13.70;51.50;94173.38;5044402;28;20105;-81
2022/10/15 07:38:06;;;;;;;10.85;4.40;;;;;;;13.91;51.18;94176.88;5047241;28;20832;-80
2022/10/15 07:40:31;;;;;;;13.48;7.25;;;;;;;13.61;51.14;94167.31;5045467;28;20520;-81
2022/10/15 07:42:57;;;;;;;7.30;4.57;;;;;;;13.69;51.50;94185.19;5043766;28;20028;-80
2022/10/15 07:45:24;;;;;;;9.35;5.22;;;;;;;13.64;50.92;94167.44;5046153;28;20055;-80
2022/10/15 07:47:50;;;;;;;6.38;4.15;;;;;;;13.83;50.62;94177.72;5036377;28;20116;-81
2022/10/15 07:50:19;;;;;;;11.00;4.60;;;;;;;13.87;50.45;94185.88;5024738;28;20094;-81
2022/10/15 07:52:45;;;;;;;5.28;3.40;;;;;;;13.79;49.84;94168.75;5022228;28;20032;-80
2022/10/15 07:55:11;;;;;;;7.68;4.03;;;;;;;13.81;49.62;94177.25;5032998;28;20032;-79
2022/10/15 07:57:36;;;;;;;6.28;4.22;;;;;;;13.78;50.13;94166.44;5046041;28;20035;-78
2022/10/15 08:00:04;;;;;;;5.07;3.67;;;;;;;13.93;49.88;94179.22;5047212;28;20052;-81
2022/10/15 08:02:30;;;;;;;5.68;3.60;;;;;;;13.92;48.81;94191.03;5047167;28;20397;-79
2022/10/15 08:04:55;;;;;;;5.43;4.03;;;;;;;13.85;48.79;94182.72;5049018;28;20024;-79
2022/10/15 08:07:21;;;;;;;9.45;4.25;;;;;;;13.87;48.82;94186.66;5047282;28;20047;-81
2022/10/15 08:09:46;;;;;;;7.72;4.68;;;;;;;13.59;49.62;94170.28;5048856;28;20039;-79
2022/10/15 08:12:11;;;;;;;6.20;3.65;;;;;;;13.73;50.16;94175.41;5028965;28;20505;-77
2022/10/15 08:14:37;;;;;;;7.13;5.35;;;;;;;13.90;50.39;94179.88;5043577;28;20139;-77
2022/10/15 08:17:04;;;;;;;8.27;4.03;;;;;;;13.81;50.23;94155.06;5034962;28;20017;-80
2022/10/15 08:19:30;;;;;;;8.95;5.10;;;;;;;14.10;49.50;94182.56;5045273;28;20485;-79
2022/10/15 08:21:56;;;;;;;8.10;3.95;;;;;;;14.00;49.11;94177.59;5047936;28;20021;-80
2022/10/15 08:24:22;;;;;;;9.45;4.35;;;;;;;12.91;48.58;94013.06;5045625;28;20029;-80
2022/10/15 08:26:48;;;;;;;7.90;4.40;;;;;;;13.87;49.00;94165.28;5046627;28;20513;-80
2022/10/15 08:29:14;;;;;;;8.25;4.65;;;;;;;13.75;49.30;94173.97;5029087;28;20278;-79
2022/10/15 08:31:40;;;;;;;5.57;3.67;;;;;;;13.62;49.52;94156.28;5048810;28;20047;-80
2022/10/15 08:34:06;;;;;;;9.82;4.38;;;;;;;13.75;50.13;94170.53;5021807;28;20104;-82
2022/10/15 08:36:31;;;;;;;8.05;4.35;;;;;;;13.19;50.36;94102.28;5045469;28;20885;-80
2022/10/15 08:38:57;;;;;;;10.60;4.20;;;;;;;13.00;50.45;94083.22;5047132;28;20036;-81
2022/10/15 08:41:37;;;;;;;7.50;4.53;;;;;;;13.80;49.93;94159.63;5047661;28;20830;-80
2022/10/15 08:44:03;;;;;;;8.98;3.83;;;;;;;13.83;50.00;94158.22;5044914;28;20102;-80
2022/10/15 08:46:31;;;;;;;7.88;4.13;;;;;;;13.83;49.49;94158.22;5045354;28;20025;-79
2022/10/15 08:48:59;;;;;;;8.10;4.88;;;;;;;13.84;49.13;94165.13;5046340;28;20082;-81
2022/10/15 08:51:37;;;;;;;10.18;4.50;;;;;;;13.93;49.19;94165.88;5047190;28;20039;-79
2022/10/15 08:54:05;;;;;;;5.35;3.88;;;;;;;13.82;49.52;94135.25;5028920;28;20140;-81
2022/10/15 08:56:38;;;;;;;6.30;4.10;;;;;;;13.94;48.27;94148.69;5047245;28;20020;-79
2022/10/15 08:59:39;;;;;;;5.15;3.08;;;;;;;13.96;47.92;94146.47;5044303;28;20562;-80
2022/10/15 09:02:17;;;;;;;5.28;3.72;;;;;;;14.11;49.33;94140.56;5026881;28;20128;-79
2022/10/15 09:05:09;;;;;;;8.55;6.00;;;;;;;13.96;47.65;94157.97;5033594;28;20055;-80
2022/10/15 09:07:42;;;;;;;4.60;3.25;;;;;;;14.03;47.96;94168.16;5044920;28;20575;-81
2022/10/15 09:10:31;;;;;;;5.43;3.97;;;;;;;14.00;47.93;94168.78;5047789;28;20635;-80
2022/10/15 09:13:20;;;;;;;5.22;3.55;;;;;;;14.02;47.49;94171.94;5029966;28;20375;-81
2022/10/15 09:15:59;;;;;;;5.30;3.53;;;;;;;13.64;46.89;94113.97;5036515;28;20105;-79
2022/10/15 09:18:29;;;;;;;9.00;3.17;;;;;;;13.80;46.52;94153.50;5028256;28;20025;-79
2022/10/15 09:20:56;;;;;;;6.10;4.15;;;;;;;14.02;46.85;94172.72;5029309;28;20031;-81
2022/10/15 09:23:26;;;;;;;5.20;3.15;;;;;;;14.01;46.89;94143.63;5045892;28;20515;-81
2022/10/15 09:26:10;;;;;;;4.85;3.28;;;;;;;14.21;47.05;94142.84;5048674;28;20115;-80
2022/10/15 09:28:47;;;;;;;6.32;2.85;;;;;;;14.40;47.10;94153.06;5047715;28;20059;-82
2022/10/15 09:31:16;;;;;;;3.88;2.65;;;;;;;14.44;45.57;94145.94;5050974;28;20045;-79
2022/10/15 09:33:49;;;;;;;5.55;3.35;;;;;;;14.64;45.76;94160.41;5050417;28;20034;-80
2022/10/15 09:36:55;;;;;;;6.45;2.90;;;;;;;14.68;44.82;94172.81;5050471;28;20481;-81
2022/10/15 09:39:36;;;;;;;3.33;2.90;;;;;;;14.71;44.83;94168.72;5050494;28;20078;-81
2022/10/15 09:42:04;;;;;;;5.85;2.95;;;;;;;14.69;45.27;94162.88;5048122;28;20035;-81
2022/10/15 09:44:35;;;;;;;5.90;2.90;;;;;;;14.54;45.29;94157.03;5046628;28;20039;-79
2022/10/15 09:47:01;;;;;;;5.50;2.67;;;;;;;14.52;45.04;94159.22;5049605;28;20672;-79
2022/10/15 09:49:27;;;;;;;5.97;3.15;;;;;;;14.36;44.25;94138.78;5029715;28;20032;-80
2022/10/15 09:51:58;;;;;;;4.45;3.08;;;;;;;14.59;44.36;94158.72;5032001;28;20036;-79
2022/10/15 09:54:34;;;;;;;5.03;2.50;;;;;;;14.61;44.39;94151.16;5045948;28;20029;-79
2022/10/15 09:57:00;;;;;;;3.63;2.72;;;;;;;14.47;44.82;94145.28;5032148;28;20044;-79
2022/10/15 09:59:26;;;;;;;4.90;3.17;;;;;;;14.63;44.50;94150.81;5049538;28;20029;-78
2022/10/15 10:02:14;;;;;;;6.25;3.60;;;;;;;14.49;44.29;94133.13;5049804;28;20108;-81
2022/10/15 10:04:39;;;;;;;4.40;3.72;;;;;;;14.68;44.33;94156.75;5030838;28;20675;-80
2022/10/15 10:07:06;;;;;;;5.43;3.88;;;;;;;14.45;43.80;94102.78;5048748;28;20028;-78
2022/10/15 10:09:37;;;;;;;4.45;3.15;;;;;;;14.98;44.10;94166.22;5049754;28;20063;-79
2022/10/15 10:12:05;;;;;;;4.22;3.15;;;;;;;15.02;42.81;94169.00;5051131;28;20430;-80
2022/10/15 10:14:51;;;;;;;6.32;3.85;;;;;;;15.14;41.92;94174.41;5048306;28;20031;-81
2022/10/15 10:17:22;;;;;;;3.63;3.10;;;;;;;15.30;41.97;94161.13;5032741;28;20022;-81
2022/10/15 10:20:09;;;;;;;4.07;2.92;;;;;;;15.40;41.81;94163.38;5040958;28;20062;-79
2022/10/15 10:22:59;;;;;;;4.22;3.15;;;;;;;15.32;41.96;94151.63;5034971;28;20128;-80
2022/10/15 10:25:37;;;;;;;5.65;2.88;;;;;;;15.49;41.55;94163.28;5043745;28;20091;-80
2022/10/15 10:28:08;;;;;;;4.53;2.58;;;;;;;15.62;41.79;94151.44;5048612;28;20369;-80
2022/10/15 10:30:57;;;;;;;4.15;3.08;;;;;;;15.54;41.97;94128.22;5049075;28;20025;-80
2022/10/15 10:33:33;;;;;;;4.47;3.25;;;;;;;15.61;41.72;94128.41;5020216;28;20725;-82
2022/10/15 10:36:01;;;;;;;4.43;3.00;;;;;;;15.82;41.59;94151.31;5049234;28;20147;-82
2022/10/15 10:38:31;;;;;;;6.38;3.60;;;;;;;15.89;41.21;94145.38;5049961;28;20013;-79
2022/10/15 10:41:07;;;;;;;4.70;2.75;;;;;;;15.99;41.43;94144.91;5047456;28;20123;-80
2022/10/15 10:43:50;;;;;;;4.53;3.85;;;;;;;15.89;41.01;94150.72;5030367;28;20592;-79
2022/10/15 10:46:19;;;;;;;3.65;2.80;;;;;;;15.67;40.38;94154.69;5049171;28;20024;-80
2022/10/15 10:48:47;;;;;;;5.13;3.17;;;;;;;15.51;40.98;94088.66;5048946;28;20691;-79
2022/10/15 10:51:15;;;;;;;5.68;3.20;;;;;;;15.99;41.23;94141.47;5047529;28;20032;-79
2022/10/15 10:54:03;;;;;;;4.78;3.67;;;;;;;15.87;40.74;94134.22;5047753;28;20020;-79
2022/10/15 10:56:39;;;;;;;5.95;3.40;;;;;;;15.61;40.82;94080.16;5050392;28;20560;-79
2022/10/15 10:59:40;;;;;;;3.42;2.28;;;;;;;15.88;40.20;94141.16;5028326;28;20040;-80
2022/10/15 11:02:10;;;;;;;4.28;2.78;;;;;;;15.80;39.69;94120.56;5027245;28;20554;-81
2022/10/15 11:04:37;;;;;;;7.20;2.63;;;;;;;15.63;40.06;94124.31;5031039;28;20496;-80
2022/10/15 11:07:30;;;;;;;5.20;2.95;;;;;;;15.67;40.76;94137.81;5047071;28;20017;-80
2022/10/15 11:10:20;;;;;;;3.60;2.60;;;;;;;15.79;40.57;94127.84;5044005;28;20056;-81
2022/10/15 11:13:08;;;;;;;3.65;2.88;;;;;;;15.84;40.55;94124.94;5027161;28;20693;-81
2022/10/15 11:15:49;;;;;;;5.18;2.58;;;;;;;15.76;39.70;94133.09;5048380;28;20035;-79
2022/10/15 11:18:39;;;;;;;4.78;2.80;;;;;;;15.75;40.30;94112.75;5036828;28;20024;-78
2022/10/15 11:21:42;;;;;;;4.00;2.58;;;;;;;15.92;39.23;94117.88;5049770;28;20036;-82
2022/10/15 11:24:18;;;;;;;5.13;2.40;;;;;;;16.00;39.40;94111.59;5049060;28;20684;-79
2022/10/15 11:26:50;;;;;;;3.15;2.42;;;;;;;16.09;38.99;94111.44;5040085;28;20510;-80
2022/10/15 11:29:34;;;;;;;4.90;2.53;;;;;;;16.41;39.22;94123.13;5035612;28;20021;-80
2022/10/15 11:32:36;;;;;;;3.20;2.28;;;;;;;16.36;38.58;94109.94;5049241;28;20020;-81
2022/10/15 11:35:43;;;;;;;4.85;3.10;;;;;;;16.53;39.46;94126.53;5046806;28;20031;-80
2022/10/15 11:38:24;;;;;;;4.55;2.60;;;;;;;16.70;38.97;94125.47;4995926;28;20062;-81
2022/10/15 11:41:31;;;;;;;3.78;2.10;;;;;;;16.77;37.78;94117.56;5047386;28;20033;-79
2022/10/15 11:44:11;;;;;;;5.50;2.63;;;;;;;16.65;38.79;94096.16;4957848;28;20030;-80
2022/10/15 11:46:49;;;;;;;4.30;2.55;;;;;;;16.77;37.96;94114.88;4949862;28;20705;-80
2022/10/15 11:49:27;;;;;;;4.60;2.38;;;;;;;16.42;37.83;94098.63;5011433;28;20037;-80